JAL402 EGLL-RJAA
Flight info
| Callsign | JAL402 |
|---|---|
| Flight time | N/A |
| Altitude | 37000 |
| Route | DET L6 DVR UL9 KONAN UL607 FERDI DCT REMBA UL607 SPI DCT GUBAX DCT KOMIB DCT TONSU Z650 VEMUT DCT PEPIK DCT AMRAX DCT MEGIK DCT DINRO N743 UDROS DCT CRM/N0502F330 UM11 ARLAT DCT ZERGE UN644 ROLIN N644 ODILI DCT BARAD M747 SUBUT T916 LEYLA N161 GASBI/K0924F330 N161 MADEV/K0913F350 N161 SARIN/K0913S1070 A368 FKG/N0494F370 W188 GOVSA W66 DKO W69 HUR/K0913S1130 B339 LADIX W34 VAPGU W100 ORAVA W201 UNSEK A326 DONVO G597 AGAVO Y644 EGOBA/N0520F390 Y697 LANAT Y51 SAMON Y517 ESKAS Y303 ENTAK Y30 SWAMP |
| Aircraft | B77W/H-SDE1E2E3FGHIJ2J3J4J5M1RWXY/LB1D1 |
Departure
| Time | N/A |
|---|---|
| Airport | London Heathrow Airport (EGLL) |
Arrival
| Time | 2026-05-06 02:30 |
|---|---|
| Airport | Narita International Airport (RJAA) |
| Time | Latitude | Longitude | Altitude | Speed | Heading |
|---|---|---|---|---|---|
| 2026-05-05 22:40 | 41.39002 | 103.21483 | 36915 ft | 584 kts | 115° |
| 2026-05-05 22:40 | 41.36238 | 103.31278 | 36915 ft | 585 kts | 115° |
| 2026-05-05 22:41 | 41.33426 | 103.41394 | 36915 ft | 586 kts | 114° |
| 2026-05-05 22:41 | 41.30667 | 103.51605 | 36914 ft | 586 kts | 114° |
| 2026-05-05 22:42 | 41.27897 | 103.61811 | 36913 ft | 588 kts | 114° |
| 2026-05-05 22:42 | 41.25112 | 103.72028 | 36859 ft | 588 kts | 114° |
| 2026-05-05 22:43 | 41.22323 | 103.82215 | 36849 ft | 586 kts | 114° |
| 2026-05-05 22:43 | 41.19523 | 103.92401 | 36847 ft | 586 kts | 114° |
| 2026-05-05 22:44 | 41.16715 | 104.02575 | 36845 ft | 587 kts | 114° |
| 2026-05-05 22:44 | 41.13893 | 104.12756 | 36845 ft | 589 kts | 114° |
| 2026-05-05 22:45 | 41.11047 | 104.22986 | 36843 ft | 590 kts | 114° |
| 2026-05-05 22:45 | 41.08216 | 104.33121 | 36842 ft | 589 kts | 114° |
| 2026-05-05 22:46 | 41.05353 | 104.43329 | 36855 ft | 590 kts | 114° |
| 2026-05-05 22:46 | 41.02497 | 104.53469 | 36876 ft | 589 kts | 114° |
| 2026-05-05 22:47 | 40.99621 | 104.63643 | 36883 ft | 589 kts | 114° |
| 2026-05-05 22:47 | 40.96737 | 104.73804 | 36841 ft | 590 kts | 114° |
| 2026-05-05 22:48 | 40.93840 | 104.83967 | 36787 ft | 590 kts | 114° |
| 2026-05-05 22:48 | 40.90935 | 104.94121 | 36783 ft | 590 kts | 114° |
| 2026-05-05 22:49 | 40.88051 | 105.04170 | 36802 ft | 581 kts | 115° |
| 2026-05-05 22:49 | 40.85206 | 105.14025 | 36930 ft | 572 kts | 116° |
| 2026-05-05 22:50 | 40.82357 | 105.23859 | 36999 ft | 577 kts | 116° |
| 2026-05-05 22:50 | 40.79478 | 105.33792 | 36995 ft | 579 kts | 116° |
| 2026-05-05 22:51 | 40.76594 | 105.43676 | 36999 ft | 577 kts | 116° |
| 2026-05-05 22:51 | 40.73703 | 105.53550 | 36999 ft | 576 kts | 116° |
| 2026-05-05 22:52 | 40.70807 | 105.63410 | 36995 ft | 577 kts | 116° |
| 2026-05-05 22:52 | 40.67900 | 105.73250 | 36993 ft | 577 kts | 116° |
| 2026-05-05 22:53 | 40.64984 | 105.83105 | 36992 ft | 576 kts | 116° |
| 2026-05-05 22:53 | 40.62079 | 105.92889 | 36990 ft | 576 kts | 116° |
| 2026-05-05 22:54 | 40.59144 | 106.02735 | 36988 ft | 576 kts | 116° |
| 2026-05-05 22:54 | 40.56211 | 106.12512 | 36987 ft | 580 kts | 116° |
| 2026-05-05 22:55 | 40.53254 | 106.22371 | 36985 ft | 579 kts | 116° |
| 2026-05-05 22:55 | 40.50291 | 106.32203 | 36982 ft | 579 kts | 116° |
| 2026-05-05 22:56 | 40.47318 | 106.42037 | 36984 ft | 579 kts | 116° |
| 2026-05-05 22:56 | 40.44338 | 106.51849 | 36983 ft | 579 kts | 116° |
| 2026-05-05 22:57 | 40.41380 | 106.61690 | 36979 ft | 580 kts | 115° |
| 2026-05-05 22:57 | 40.38409 | 106.71545 | 36979 ft | 581 kts | 116° |
| 2026-05-05 22:58 | 40.35367 | 106.81409 | 36983 ft | 582 kts | 116° |
| 2026-05-05 22:58 | 40.32381 | 106.91264 | 36976 ft | 584 kts | 113° |
| 2026-05-05 22:59 | 40.30746 | 107.01728 | 36966 ft | 591 kts | 92° |
| 2026-05-05 22:59 | 40.31045 | 107.07112 | 36985 ft | 590 kts | 78° |
| 2026-05-05 22:59 | 40.31965 | 107.12356 | 36967 ft | 591 kts | 72° |
| 2026-05-05 23:00 | 40.34723 | 107.28054 | 36973 ft | 591 kts | 77° |
| 2026-05-05 23:00 | 40.36042 | 107.38703 | 36973 ft | 591 kts | 79° |
| 2026-05-05 23:01 | 40.37313 | 107.49342 | 36965 ft | 592 kts | 78° |
| 2026-05-05 23:01 | 40.38623 | 107.60032 | 36962 ft | 592 kts | 78° |
| 2026-05-05 23:02 | 40.39903 | 107.70697 | 36963 ft | 592 kts | 79° |
| 2026-05-05 23:02 | 40.41170 | 107.81349 | 36961 ft | 591 kts | 79° |
| 2026-05-05 23:03 | 40.42421 | 107.92022 | 36967 ft | 591 kts | 79° |
| 2026-05-05 23:03 | 40.43662 | 108.02659 | 36954 ft | 592 kts | 78° |
| 2026-05-05 23:04 | 40.44908 | 108.13389 | 36950 ft | 592 kts | 79° |
| 2026-05-05 23:04 | 40.46128 | 108.24035 | 36950 ft | 592 kts | 79° |
| 2026-05-05 23:05 | 40.47346 | 108.34729 | 36950 ft | 592 kts | 79° |
| 2026-05-05 23:05 | 40.48563 | 108.45445 | 36950 ft | 593 kts | 79° |
| 2026-05-05 23:06 | 40.49760 | 108.56180 | 36950 ft | 595 kts | 79° |
| 2026-05-05 23:06 | 40.50956 | 108.66951 | 36946 ft | 596 kts | 79° |
| 2026-05-05 23:07 | 40.52142 | 108.77739 | 36936 ft | 596 kts | 79° |
| 2026-05-05 23:07 | 40.53310 | 108.88462 | 36910 ft | 596 kts | 79° |
| 2026-05-05 23:08 | 40.54474 | 108.99267 | 36911 ft | 597 kts | 79° |
| 2026-05-05 23:08 | 40.55633 | 109.10092 | 36909 ft | 597 kts | 79° |
| 2026-05-05 23:09 | 40.56782 | 109.20927 | 36913 ft | 598 kts | 79° |
| 2026-05-05 23:09 | 40.57921 | 109.31748 | 36917 ft | 598 kts | 79° |
| 2026-05-05 23:10 | 40.59055 | 109.42611 | 36923 ft | 597 kts | 79° |
| 2026-05-05 23:10 | 40.60170 | 109.53426 | 36918 ft | 598 kts | 79° |
| 2026-05-05 23:11 | 40.61317 | 109.64261 | 36921 ft | 598 kts | 79° |
| 2026-05-05 23:11 | 40.62403 | 109.75057 | 36917 ft | 597 kts | 79° |
| 2026-05-05 23:12 | 40.63471 | 109.85900 | 36918 ft | 597 kts | 79° |
| 2026-05-05 23:12 | 40.64532 | 109.96737 | 36915 ft | 598 kts | 81° |
| 2026-05-05 23:13 | 40.64848 | 110.07704 | 36925 ft | 601 kts | 89° |
| 2026-05-05 23:13 | 40.64666 | 110.16856 | 36921 ft | 601 kts | 89° |
| 2026-05-05 23:14 | 40.64555 | 110.27862 | 36925 ft | 602 kts | 89° |
| 2026-05-05 23:14 | 40.64461 | 110.38925 | 36926 ft | 602 kts | 88° |
| 2026-05-05 23:15 | 40.64365 | 110.49914 | 36926 ft | 601 kts | 89° |
| 2026-05-05 23:15 | 40.64257 | 110.60911 | 36927 ft | 601 kts | 89° |
| 2026-05-05 23:16 | 40.64133 | 110.71932 | 36926 ft | 602 kts | 89° |
| 2026-05-05 23:16 | 40.64063 | 110.82954 | 36931 ft | 602 kts | 88° |
| 2026-05-05 23:17 | 40.63950 | 110.93967 | 36931 ft | 602 kts | 89° |
| 2026-05-05 23:17 | 40.63792 | 111.04995 | 36930 ft | 601 kts | 89° |
| 2026-05-05 23:18 | 40.63631 | 111.15936 | 36931 ft | 601 kts | 89° |
| 2026-05-05 23:18 | 40.63471 | 111.26930 | 36931 ft | 600 kts | 89° |
| 2026-05-05 23:19 | 40.63288 | 111.37942 | 36932 ft | 601 kts | 89° |
| 2026-05-05 23:19 | 40.63109 | 111.48874 | 36930 ft | 599 kts | 88° |
| 2026-05-05 23:20 | 40.62980 | 111.59884 | 36932 ft | 598 kts | 89° |
| 2026-05-05 23:20 | 40.62771 | 111.70836 | 36940 ft | 597 kts | 89° |
| 2026-05-05 23:21 | 40.62550 | 111.81687 | 36935 ft | 597 kts | 89° |
| 2026-05-05 23:21 | 40.62351 | 111.92610 | 36932 ft | 596 kts | 88° |
| 2026-05-05 23:22 | 40.62160 | 112.03552 | 36935 ft | 597 kts | 90° |
| 2026-05-05 23:22 | 40.61849 | 112.14424 | 36929 ft | 595 kts | 88° |
| 2026-05-05 23:23 | 40.61632 | 112.25338 | 36927 ft | 596 kts | 89° |
| 2026-05-05 23:23 | 40.61347 | 112.36247 | 36926 ft | 597 kts | 89° |
| 2026-05-05 23:24 | 40.61036 | 112.47159 | 36927 ft | 597 kts | 90° |
| 2026-05-05 23:24 | 40.60489 | 112.58040 | 36912 ft | 598 kts | 92° |
| 2026-05-05 23:25 | 40.59817 | 112.68884 | 36909 ft | 597 kts | 92° |
| 2026-05-05 23:25 | 40.59133 | 112.79802 | 36898 ft | 597 kts | 92° |
| 2026-05-05 23:26 | 40.58412 | 112.90681 | 36894 ft | 599 kts | 92° |
| 2026-05-05 23:26 | 40.57660 | 113.01556 | 36889 ft | 598 kts | 93° |
| 2026-05-05 23:27 | 40.56897 | 113.12454 | 36882 ft | 597 kts | 92° |
| 2026-05-05 23:27 | 40.56131 | 113.23330 | 36871 ft | 596 kts | 93° |
| 2026-05-05 23:28 | 40.55414 | 113.34236 | 36867 ft | 596 kts | 92° |
| 2026-05-05 23:28 | 40.54679 | 113.45026 | 36864 ft | 595 kts | 92° |
| 2026-05-05 23:29 | 40.53900 | 113.55886 | 36855 ft | 594 kts | 93° |
| 2026-05-05 23:29 | 40.53157 | 113.66707 | 36848 ft | 594 kts | 93° |
| 2026-05-05 23:30 | 40.52352 | 113.77495 | 36842 ft | 593 kts | 93° |
| 2026-05-05 23:30 | 40.51536 | 113.88218 | 36836 ft | 592 kts | 93° |
| 2026-05-05 23:31 | 40.50717 | 113.98975 | 36829 ft | 592 kts | 93° |
| 2026-05-05 23:31 | 40.50112 | 114.09757 | 36823 ft | 590 kts | 90° |
| 2026-05-05 23:32 | 40.49730 | 114.20509 | 36818 ft | 589 kts | 90° |
| 2026-05-05 23:32 | 40.49268 | 114.31211 | 36813 ft | 589 kts | 90° |
| 2026-05-05 23:33 | 40.48769 | 114.42003 | 36809 ft | 590 kts | 90° |
| 2026-05-05 23:33 | 40.48317 | 114.52773 | 36808 ft | 590 kts | 90° |
| 2026-05-05 23:34 | 40.47848 | 114.63473 | 36805 ft | 590 kts | 90° |
| 2026-05-05 23:34 | 40.47343 | 114.74240 | 36785 ft | 591 kts | 90° |
| 2026-05-05 23:35 | 40.46825 | 114.84959 | 36764 ft | 591 kts | 90° |
| 2026-05-05 23:35 | 40.46295 | 114.95720 | 36758 ft | 591 kts | 90° |
| 2026-05-05 23:36 | 40.45752 | 115.06527 | 36754 ft | 590 kts | 90° |
| 2026-05-05 23:36 | 40.45239 | 115.17234 | 36750 ft | 589 kts | 90° |
| 2026-05-05 23:37 | 40.44681 | 115.27963 | 36748 ft | 588 kts | 90° |
| 2026-05-05 23:37 | 40.44096 | 115.38638 | 36745 ft | 587 kts | 90° |
| 2026-05-05 23:38 | 40.43509 | 115.49296 | 36742 ft | 586 kts | 90° |
| 2026-05-05 23:38 | 40.42774 | 115.60016 | 36739 ft | 586 kts | 92° |
| 2026-05-05 23:39 | 40.41900 | 115.70613 | 36737 ft | 586 kts | 92° |
| 2026-05-05 23:39 | 40.41024 | 115.81238 | 36735 ft | 586 kts | 92° |
| 2026-05-05 23:40 | 40.40141 | 115.91868 | 36734 ft | 585 kts | 92° |
| 2026-05-05 23:40 | 40.39248 | 116.02510 | 36733 ft | 585 kts | 92° |
| 2026-05-05 23:41 | 40.38351 | 116.13103 | 36732 ft | 584 kts | 92° |
| 2026-05-05 23:41 | 40.37444 | 116.23679 | 36731 ft | 584 kts | 92° |
| 2026-05-05 23:42 | 40.36532 | 116.34286 | 36730 ft | 584 kts | 92° |
| 2026-05-05 23:42 | 40.35672 | 116.44818 | 36728 ft | 584 kts | 92° |
| 2026-05-05 23:43 | 40.34730 | 116.55393 | 36727 ft | 584 kts | 93° |
| 2026-05-05 23:43 | 40.33373 | 116.65918 | 36731 ft | 588 kts | 107° |
| 2026-05-05 23:44 | 40.31654 | 116.70770 | 36730 ft | 590 kts | 122° |
| 2026-05-05 23:44 | 40.29159 | 116.75010 | 36728 ft | 589 kts | 137° |
| 2026-05-05 23:44 | 40.26039 | 116.78396 | 36729 ft | 582 kts | 152° |
| 2026-05-05 23:44 | 40.22435 | 116.80775 | 36729 ft | 571 kts | 167° |
| 2026-05-05 23:45 | 40.18665 | 116.81978 | 36728 ft | 549 kts | 182° |
| 2026-05-05 23:45 | 40.14930 | 116.82003 | 36730 ft | 526 kts | 197° |
| 2026-05-05 23:45 | 40.07790 | 116.80495 | 36724 ft | 530 kts | 194° |
| 2026-05-05 23:46 | 40.00295 | 116.80880 | 36727 ft | 543 kts | 182° |
| 2026-05-05 23:46 | 39.92739 | 116.82236 | 36723 ft | 552 kts | 179° |
| 2026-05-05 23:47 | 39.85122 | 116.83866 | 36720 ft | 555 kts | 178° |
| 2026-05-05 23:47 | 39.77495 | 116.85502 | 36716 ft | 555 kts | 178° |
| 2026-05-05 23:48 | 39.69917 | 116.87121 | 36713 ft | 555 kts | 178° |
| 2026-05-05 23:48 | 39.62295 | 116.88745 | 36709 ft | 555 kts | 178° |
| 2026-05-05 23:49 | 39.54648 | 116.90370 | 36707 ft | 556 kts | 178° |
| 2026-05-05 23:49 | 39.46997 | 116.91993 | 36701 ft | 557 kts | 178° |
| 2026-05-05 23:50 | 39.39346 | 116.93624 | 36699 ft | 557 kts | 178° |
| 2026-05-05 23:50 | 39.31746 | 116.95231 | 36699 ft | 557 kts | 178° |
| 2026-05-05 23:51 | 39.24081 | 116.96846 | 36699 ft | 557 kts | 178° |
| 2026-05-05 23:51 | 39.16583 | 116.99558 | 36698 ft | 568 kts | 156° |
| 2026-05-05 23:52 | 39.13298 | 117.02412 | 36699 ft | 573 kts | 141° |
| 2026-05-05 23:52 | 39.10587 | 117.06159 | 36699 ft | 577 kts | 126° |
| 2026-05-05 23:52 | 39.08567 | 117.10660 | 36704 ft | 578 kts | 111° |
| 2026-05-05 23:52 | 39.07169 | 117.15508 | 36697 ft | 578 kts | 104° |
| 2026-05-05 23:53 | 39.05491 | 117.25556 | 36698 ft | 576 kts | 92° |
| 2026-05-05 23:53 | 39.05132 | 117.35844 | 36698 ft | 570 kts | 84° |
| 2026-05-05 23:54 | 39.05270 | 117.45944 | 36699 ft | 565 kts | 82° |
| 2026-05-05 23:54 | 39.05557 | 117.56001 | 36697 ft | 561 kts | 81° |
| 2026-05-05 23:55 | 39.05887 | 117.66031 | 36703 ft | 560 kts | 80° |
| 2026-05-05 23:55 | 39.06220 | 117.76104 | 36699 ft | 563 kts | 81° |
| 2026-05-05 23:56 | 39.06499 | 117.86082 | 36702 ft | 562 kts | 81° |
| 2026-05-05 23:56 | 39.06783 | 117.96126 | 36704 ft | 562 kts | 81° |
| 2026-05-05 23:57 | 39.06550 | 118.06229 | 36708 ft | 568 kts | 92° |
| 2026-05-05 23:57 | 39.05092 | 118.16251 | 36709 ft | 572 kts | 98° |
| 2026-05-05 23:58 | 39.03411 | 118.26261 | 36712 ft | 573 kts | 97° |
| 2026-05-05 23:58 | 39.01792 | 118.36280 | 36716 ft | 572 kts | 97° |
| 2026-05-05 23:59 | 39.00189 | 118.46323 | 36722 ft | 572 kts | 97° |
| 2026-05-05 23:59 | 38.98590 | 118.56306 | 36728 ft | 571 kts | 97° |
| 2026-05-06 00:00 | 38.96969 | 118.66309 | 36731 ft | 570 kts | 97° |
| 2026-05-06 00:00 | 38.95620 | 118.74599 | 36736 ft | 570 kts | 97° |
| 2026-05-06 00:01 | 38.93992 | 118.84565 | 36743 ft | 570 kts | 97° |
| 2026-05-06 00:01 | 38.92352 | 118.94552 | 36750 ft | 569 kts | 97° |
| 2026-05-06 00:02 | 38.90711 | 119.04485 | 36760 ft | 569 kts | 97° |
| 2026-05-06 00:02 | 38.89064 | 119.14407 | 36775 ft | 569 kts | 97° |
| 2026-05-06 00:03 | 38.87414 | 119.24287 | 36783 ft | 568 kts | 97° |
| 2026-05-06 00:03 | 38.85751 | 119.34195 | 36792 ft | 567 kts | 97° |
| 2026-05-06 00:04 | 38.84080 | 119.44093 | 36830 ft | 567 kts | 97° |
| 2026-05-06 00:04 | 38.82402 | 119.53982 | 36838 ft | 567 kts | 97° |
| 2026-05-06 00:05 | 38.79916 | 119.68748 | 36847 ft | 565 kts | 97° |
| 2026-05-06 00:06 | 38.78206 | 119.78593 | 36853 ft | 565 kts | 97° |
| 2026-05-06 00:06 | 38.76494 | 119.88418 | 36858 ft | 564 kts | 97° |
| 2026-05-06 00:07 | 38.74425 | 119.98133 | 36863 ft | 568 kts | 105° |
| 2026-05-06 00:07 | 38.71431 | 120.07501 | 36867 ft | 568 kts | 110° |
| 2026-05-06 00:08 | 38.68373 | 120.16801 | 36872 ft | 566 kts | 109° |
| 2026-05-06 00:08 | 38.65444 | 120.26159 | 36876 ft | 566 kts | 108° |
| 2026-05-06 00:09 | 38.62462 | 120.35471 | 36885 ft | 565 kts | 109° |
| 2026-05-06 00:09 | 38.59486 | 120.44704 | 36890 ft | 565 kts | 109° |
| 2026-05-06 00:10 | 38.56528 | 120.54031 | 36893 ft | 563 kts | 106° |
| 2026-05-06 00:10 | 38.54550 | 120.63659 | 36896 ft | 559 kts | 97° |
| 2026-05-06 00:11 | 38.53093 | 120.73400 | 36897 ft | 556 kts | 97° |
| 2026-05-06 00:11 | 38.51596 | 120.83056 | 36899 ft | 554 kts | 97° |
| 2026-05-06 00:12 | 38.50001 | 120.92686 | 36900 ft | 554 kts | 98° |
| 2026-05-06 00:12 | 38.48392 | 121.02302 | 36901 ft | 553 kts | 98° |
| 2026-05-06 00:13 | 38.46793 | 121.11852 | 36903 ft | 553 kts | 98° |
| 2026-05-06 00:13 | 38.45258 | 121.21470 | 36904 ft | 551 kts | 97° |
| 2026-05-06 00:14 | 38.43845 | 121.30716 | 36904 ft | 550 kts | 98° |
| 2026-05-06 00:14 | 38.42238 | 121.40236 | 36904 ft | 549 kts | 98° |
| 2026-05-06 00:15 | 38.40663 | 121.49732 | 36905 ft | 548 kts | 98° |
| 2026-05-06 00:15 | 38.39077 | 121.59184 | 36905 ft | 547 kts | 98° |
| 2026-05-06 00:16 | 38.37471 | 121.68695 | 36908 ft | 546 kts | 98° |
| 2026-05-06 00:16 | 38.35946 | 121.77696 | 36909 ft | 545 kts | 98° |
| 2026-05-06 00:17 | 38.34352 | 121.87157 | 36909 ft | 544 kts | 98° |
| 2026-05-06 00:17 | 38.32826 | 121.96568 | 36909 ft | 544 kts | 98° |
| 2026-05-06 00:18 | 38.31208 | 122.05985 | 36910 ft | 544 kts | 99° |
| 2026-05-06 00:18 | 38.29590 | 122.15335 | 36911 ft | 543 kts | 99° |
| 2026-05-06 00:19 | 38.27958 | 122.24763 | 36910 ft | 548 kts | 98° |
| 2026-05-06 00:19 | 38.26589 | 122.33998 | 36911 ft | 555 kts | 94° |
| 2026-05-06 00:20 | 38.24874 | 122.43673 | 36913 ft | 564 kts | 106° |
| 2026-05-06 00:20 | 38.23249 | 122.48224 | 36908 ft | 568 kts | 117° |
| 2026-05-06 00:20 | 38.20941 | 122.52262 | 36915 ft | 572 kts | 133° |
| 2026-05-06 00:20 | 38.17922 | 122.55590 | 36920 ft | 574 kts | 147° |
| 2026-05-06 00:21 | 38.14578 | 122.58241 | 36914 ft | 575 kts | 150° |
| 2026-05-06 00:21 | 38.08130 | 122.64289 | 36920 ft | 578 kts | 139° |
| 2026-05-06 00:22 | 38.02336 | 122.71437 | 36922 ft | 578 kts | 134° |
| 2026-05-06 00:22 | 37.96872 | 122.78800 | 36924 ft | 577 kts | 132° |
| 2026-05-06 00:23 | 37.91403 | 122.86253 | 36926 ft | 575 kts | 132° |
| 2026-05-06 00:23 | 37.85946 | 122.93673 | 36930 ft | 574 kts | 132° |
| 2026-05-06 00:24 | 37.80504 | 123.01057 | 36944 ft | 574 kts | 132° |
| 2026-05-06 00:24 | 37.75098 | 123.08448 | 36973 ft | 573 kts | 131° |
| 2026-05-06 00:25 | 37.69648 | 123.15833 | 36980 ft | 574 kts | 132° |
| 2026-05-06 00:25 | 37.64193 | 123.23187 | 36986 ft | 573 kts | 131° |
| 2026-05-06 00:26 | 37.58758 | 123.30515 | 36993 ft | 572 kts | 131° |
| 2026-05-06 00:26 | 37.53550 | 123.38085 | 36990 ft | 571 kts | 126° |
| 2026-05-06 00:27 | 37.48871 | 123.46167 | 36991 ft | 569 kts | 123° |
| 2026-05-06 00:27 | 37.44207 | 123.54200 | 36994 ft | 569 kts | 124° |
| 2026-05-06 00:28 | 37.39471 | 123.62107 | 37000 ft | 569 kts | 124° |
| 2026-05-06 00:28 | 37.34716 | 123.70057 | 37006 ft | 569 kts | 124° |
| 2026-05-06 00:29 | 37.29987 | 123.78038 | 37012 ft | 569 kts | 124° |
| 2026-05-06 00:29 | 37.25209 | 123.85947 | 37017 ft | 569 kts | 125° |
| 2026-05-06 00:30 | 37.20418 | 123.93863 | 37022 ft | 568 kts | 124° |
| 2026-05-06 00:30 | 37.16799 | 124.02532 | 37030 ft | 557 kts | 102° |
| 2026-05-06 00:30 | 37.16081 | 124.07223 | 37033 ft | 544 kts | 88° |
| 2026-05-06 00:31 | 37.16228 | 124.11900 | 37050 ft | 531 kts | 76° |
| 2026-05-06 00:31 | 37.16797 | 124.21122 | 37040 ft | 532 kts | 80° |
| 2026-05-06 00:32 | 37.17089 | 124.30391 | 37045 ft | 532 kts | 82° |
| 2026-05-06 00:32 | 37.17325 | 124.39688 | 37051 ft | 533 kts | 82° |
| 2026-05-06 00:33 | 37.17560 | 124.48996 | 37055 ft | 533 kts | 82° |
| 2026-05-06 00:33 | 37.17787 | 124.58198 | 37060 ft | 533 kts | 82° |
| 2026-05-06 00:34 | 37.18011 | 124.67495 | 37065 ft | 532 kts | 82° |
| 2026-05-06 00:34 | 37.18227 | 124.76795 | 37069 ft | 532 kts | 82° |
| 2026-05-06 00:35 | 37.18435 | 124.86057 | 37076 ft | 533 kts | 82° |
| 2026-05-06 00:35 | 37.18637 | 124.95365 | 37080 ft | 533 kts | 83° |
| 2026-05-06 00:36 | 37.18832 | 125.04654 | 37083 ft | 533 kts | 83° |
| 2026-05-06 00:36 | 37.19018 | 125.13908 | 37086 ft | 533 kts | 83° |
| 2026-05-06 00:37 | 37.19198 | 125.23187 | 37090 ft | 533 kts | 83° |
| 2026-05-06 00:37 | 37.19370 | 125.32475 | 37093 ft | 532 kts | 83° |
| 2026-05-06 00:38 | 37.19536 | 125.41783 | 37096 ft | 533 kts | 83° |
| 2026-05-06 00:38 | 37.19694 | 125.51059 | 37098 ft | 532 kts | 84° |
| 2026-05-06 00:39 | 37.19845 | 125.60347 | 37100 ft | 533 kts | 84° |
| 2026-05-06 00:39 | 37.19990 | 125.69656 | 37103 ft | 533 kts | 84° |
| 2026-05-06 00:40 | 37.20126 | 125.78956 | 37105 ft | 533 kts | 84° |
| 2026-05-06 00:40 | 37.20256 | 125.88272 | 37106 ft | 534 kts | 84° |
| 2026-05-06 00:41 | 37.20378 | 125.97525 | 37107 ft | 534 kts | 84° |
| 2026-05-06 00:41 | 37.20494 | 126.06818 | 37108 ft | 533 kts | 85° |
| 2026-05-06 00:42 | 37.20602 | 126.16159 | 37109 ft | 533 kts | 85° |
| 2026-05-06 00:42 | 37.20703 | 126.25403 | 37110 ft | 533 kts | 85° |
| 2026-05-06 00:43 | 37.20797 | 126.34703 | 37110 ft | 533 kts | 86° |
| 2026-05-06 00:43 | 37.20885 | 126.44008 | 37111 ft | 533 kts | 86° |
| 2026-05-06 00:44 | 37.20965 | 126.53294 | 37112 ft | 533 kts | 86° |
| 2026-05-06 00:44 | 37.21073 | 126.62577 | 37112 ft | 532 kts | 85° |
| 2026-05-06 00:45 | 37.21207 | 126.71836 | 37111 ft | 532 kts | 86° |
| 2026-05-06 00:45 | 37.21267 | 126.81150 | 37114 ft | 532 kts | 86° |
| 2026-05-06 00:46 | 37.21317 | 126.88872 | 37117 ft | 532 kts | 87° |
| 2026-05-06 00:46 | 37.21866 | 126.98059 | 37117 ft | 527 kts | 73° |
| 2026-05-06 00:46 | 37.23077 | 127.02366 | 37114 ft | 523 kts | 60° |
| 2026-05-06 00:47 | 37.24801 | 127.06344 | 37119 ft | 520 kts | 54° |
| 2026-05-06 00:47 | 37.29143 | 127.13482 | 37136 ft | 511 kts | 43° |
| 2026-05-06 00:48 | 37.34068 | 127.19897 | 37152 ft | 508 kts | 41° |
| 2026-05-06 00:48 | 37.39109 | 127.26080 | 37166 ft | 507 kts | 40° |
| 2026-05-06 00:49 | 37.44181 | 127.32327 | 37168 ft | 508 kts | 40° |
| 2026-05-06 00:49 | 37.48709 | 127.39173 | 37159 ft | 514 kts | 56° |
| 2026-05-06 00:49 | 37.50207 | 127.43229 | 37171 ft | 522 kts | 69° |
| 2026-05-06 00:50 | 37.50911 | 127.47753 | 37317 ft | 529 kts | 83° |
| 2026-05-06 00:50 | 37.51140 | 127.52371 | 37559 ft | 527 kts | 83° |
| 2026-05-06 00:50 | 37.51617 | 127.56951 | 37714 ft | 527 kts | 79° |
| 2026-05-06 00:50 | 37.52242 | 127.61510 | 37933 ft | 527 kts | 77° |
| 2026-05-06 00:51 | 37.52940 | 127.66052 | 38164 ft | 526 kts | 77° |
| 2026-05-06 00:51 | 37.53662 | 127.70555 | 38394 ft | 526 kts | 76° |
| 2026-05-06 00:51 | 37.54391 | 127.75092 | 38547 ft | 527 kts | 77° |
| 2026-05-06 00:51 | 37.55106 | 127.79561 | 38747 ft | 527 kts | 77° |
| 2026-05-06 00:52 | 37.55831 | 127.84102 | 38928 ft | 527 kts | 77° |
| 2026-05-06 00:52 | 37.57277 | 127.93204 | 39002 ft | 529 kts | 77° |
| 2026-05-06 00:53 | 37.58713 | 128.02287 | 39002 ft | 528 kts | 77° |
| 2026-05-06 00:53 | 37.60133 | 128.11323 | 39012 ft | 528 kts | 77° |
| 2026-05-06 00:54 | 37.61554 | 128.20402 | 39025 ft | 529 kts | 77° |
| 2026-05-06 00:54 | 37.62973 | 128.29522 | 39042 ft | 529 kts | 78° |
| 2026-05-06 00:55 | 37.64404 | 128.38609 | 39062 ft | 529 kts | 77° |
| 2026-05-06 00:55 | 37.65856 | 128.47709 | 39079 ft | 530 kts | 78° |
| 2026-05-06 00:56 | 37.67257 | 128.56862 | 39083 ft | 530 kts | 78° |
| 2026-05-06 00:56 | 37.68651 | 128.65988 | 39092 ft | 530 kts | 78° |
| 2026-05-06 00:57 | 37.69474 | 128.75224 | 39098 ft | 531 kts | 94° |
| 2026-05-06 00:57 | 37.68869 | 128.79812 | 39109 ft | 530 kts | 105° |
| 2026-05-06 00:57 | 37.67781 | 128.84215 | 39094 ft | 532 kts | 111° |
| 2026-05-06 00:58 | 37.64599 | 128.92634 | 39100 ft | 530 kts | 121° |
| 2026-05-06 00:58 | 37.60844 | 129.00599 | 39101 ft | 527 kts | 124° |
| 2026-05-06 00:59 | 37.56997 | 129.08369 | 39101 ft | 519 kts | 124° |
| 2026-05-06 00:59 | 37.53188 | 129.16055 | 39101 ft | 515 kts | 124° |
| 2026-05-06 01:00 | 37.49397 | 129.23696 | 39102 ft | 513 kts | 124° |
| 2026-05-06 01:00 | 37.45600 | 129.31336 | 39103 ft | 514 kts | 124° |
| 2026-05-06 01:01 | 37.41809 | 129.38949 | 39104 ft | 514 kts | 124° |
| 2026-05-06 01:01 | 37.38004 | 129.46573 | 39104 ft | 514 kts | 125° |
| 2026-05-06 01:02 | 37.34226 | 129.54125 | 39105 ft | 514 kts | 125° |
| 2026-05-06 01:02 | 37.30411 | 129.61733 | 39106 ft | 514 kts | 125° |
| 2026-05-06 01:03 | 37.26583 | 129.69349 | 39106 ft | 514 kts | 125° |
| 2026-05-06 01:03 | 37.22785 | 129.76889 | 39107 ft | 514 kts | 125° |
| 2026-05-06 01:04 | 37.18960 | 129.84467 | 39108 ft | 514 kts | 125° |
| 2026-05-06 01:04 | 37.15231 | 129.91836 | 39109 ft | 514 kts | 126° |
| 2026-05-06 01:05 | 37.11395 | 129.99401 | 39110 ft | 514 kts | 126° |
| 2026-05-06 01:05 | 37.07544 | 130.06977 | 39111 ft | 515 kts | 126° |
| 2026-05-06 01:06 | 37.03697 | 130.14529 | 39112 ft | 516 kts | 127° |
| 2026-05-06 01:06 | 36.99853 | 130.22060 | 39112 ft | 516 kts | 127° |
| 2026-05-06 01:07 | 36.95979 | 130.29632 | 39113 ft | 516 kts | 127° |
| 2026-05-06 01:07 | 36.92107 | 130.37181 | 39114 ft | 516 kts | 127° |
| 2026-05-06 01:08 | 36.88228 | 130.44728 | 39114 ft | 516 kts | 127° |
| 2026-05-06 01:08 | 36.84333 | 130.52292 | 39115 ft | 517 kts | 127° |
| 2026-05-06 01:09 | 36.80432 | 130.59848 | 39125 ft | 517 kts | 128° |
| 2026-05-06 01:09 | 36.76541 | 130.67370 | 39128 ft | 517 kts | 128° |
| 2026-05-06 01:10 | 36.72630 | 130.74913 | 39129 ft | 518 kts | 128° |
| 2026-05-06 01:10 | 36.68736 | 130.82408 | 39130 ft | 518 kts | 128° |
| 2026-05-06 01:11 | 36.64806 | 130.89957 | 39131 ft | 518 kts | 128° |
| 2026-05-06 01:11 | 36.60872 | 130.97496 | 39132 ft | 518 kts | 128° |
| 2026-05-06 01:12 | 36.56941 | 131.05017 | 39133 ft | 519 kts | 128° |
| 2026-05-06 01:12 | 36.53040 | 131.12568 | 39134 ft | 520 kts | 127° |
| 2026-05-06 01:13 | 36.49143 | 131.20169 | 39134 ft | 520 kts | 129° |
| 2026-05-06 01:13 | 36.45189 | 131.27705 | 39145 ft | 521 kts | 129° |
| 2026-05-06 01:14 | 36.39292 | 131.39007 | 39134 ft | 523 kts | 127° |
| 2026-05-06 01:14 | 36.36545 | 131.47477 | 39151 ft | 536 kts | 105° |
| 2026-05-06 01:15 | 36.36251 | 131.56734 | 39161 ft | 544 kts | 91° |
| 2026-05-06 01:15 | 36.36420 | 131.66172 | 39160 ft | 551 kts | 93° |
| 2026-05-06 01:16 | 36.36261 | 131.75735 | 39161 ft | 554 kts | 96° |
| 2026-05-06 01:16 | 36.35919 | 131.85269 | 39156 ft | 553 kts | 96° |
| 2026-05-06 01:17 | 36.35634 | 131.94787 | 39155 ft | 552 kts | 96° |
| 2026-05-06 01:17 | 36.35331 | 132.04306 | 39157 ft | 553 kts | 96° |
| 2026-05-06 01:18 | 36.35003 | 132.13866 | 39158 ft | 554 kts | 96° |
| 2026-05-06 01:18 | 36.34666 | 132.23375 | 39157 ft | 555 kts | 96° |
| 2026-05-06 01:19 | 36.34319 | 132.32925 | 39141 ft | 554 kts | 97° |
| 2026-05-06 01:19 | 36.33963 | 132.42497 | 39141 ft | 554 kts | 97° |
| 2026-05-06 01:20 | 36.33601 | 132.52033 | 39141 ft | 553 kts | 97° |
| 2026-05-06 01:20 | 36.33232 | 132.61546 | 39141 ft | 553 kts | 97° |
| 2026-05-06 01:21 | 36.32855 | 132.71078 | 39142 ft | 554 kts | 97° |
| 2026-05-06 01:21 | 36.32469 | 132.80638 | 39142 ft | 554 kts | 97° |
| 2026-05-06 01:22 | 36.32079 | 132.90121 | 39148 ft | 554 kts | 97° |
| 2026-05-06 01:22 | 36.31678 | 132.99686 | 39155 ft | 555 kts | 97° |
| 2026-05-06 01:23 | 36.31270 | 133.09220 | 39156 ft | 556 kts | 97° |
| 2026-05-06 01:23 | 36.30852 | 133.18820 | 39157 ft | 556 kts | 97° |
| 2026-05-06 01:24 | 36.30428 | 133.28386 | 39163 ft | 557 kts | 97° |
| 2026-05-06 01:24 | 36.30002 | 133.37983 | 39162 ft | 558 kts | 97° |
| 2026-05-06 01:25 | 36.29590 | 133.47561 | 39169 ft | 558 kts | 98° |
| 2026-05-06 01:25 | 36.29128 | 133.57170 | 39170 ft | 559 kts | 98° |
| 2026-05-06 01:26 | 36.28655 | 133.66814 | 39169 ft | 560 kts | 98° |
| 2026-05-06 01:26 | 36.28182 | 133.76471 | 39170 ft | 561 kts | 98° |
| 2026-05-06 01:27 | 36.27711 | 133.86116 | 39170 ft | 561 kts | 98° |
| 2026-05-06 01:27 | 36.27198 | 133.95789 | 39170 ft | 562 kts | 99° |
| 2026-05-06 01:28 | 36.26679 | 134.05454 | 39170 ft | 562 kts | 99° |
| 2026-05-06 01:28 | 36.26194 | 134.15090 | 39170 ft | 563 kts | 98° |
| 2026-05-06 01:29 | 36.25701 | 134.24751 | 39170 ft | 563 kts | 99° |
| 2026-05-06 01:29 | 36.25173 | 134.34428 | 39170 ft | 563 kts | 99° |
| 2026-05-06 01:30 | 36.24639 | 134.44135 | 39170 ft | 563 kts | 99° |
| 2026-05-06 01:30 | 36.24875 | 134.53830 | 39173 ft | 568 kts | 85° |
| 2026-05-06 01:31 | 36.26362 | 134.63439 | 39171 ft | 573 kts | 79° |
| 2026-05-06 01:31 | 36.28072 | 134.73123 | 39170 ft | 575 kts | 80° |
| 2026-05-06 01:32 | 36.29704 | 134.82839 | 39174 ft | 576 kts | 81° |
| 2026-05-06 01:32 | 36.31307 | 134.92562 | 39179 ft | 576 kts | 81° |
| 2026-05-06 01:33 | 36.32959 | 135.02258 | 39179 ft | 577 kts | 81° |
| 2026-05-06 01:33 | 36.34586 | 135.12026 | 39179 ft | 579 kts | 81° |
| 2026-05-06 01:34 | 36.36193 | 135.21818 | 39179 ft | 581 kts | 81° |
| 2026-05-06 01:34 | 36.37798 | 135.31675 | 39174 ft | 583 kts | 81° |
| 2026-05-06 01:35 | 36.39393 | 135.41533 | 39171 ft | 584 kts | 81° |
| 2026-05-06 01:35 | 36.40989 | 135.51453 | 39171 ft | 586 kts | 81° |
| 2026-05-06 01:36 | 36.42575 | 135.61361 | 39170 ft | 587 kts | 82° |
| 2026-05-06 01:36 | 36.44157 | 135.71304 | 39170 ft | 588 kts | 82° |
| 2026-05-06 01:37 | 36.45728 | 135.81234 | 39171 ft | 589 kts | 82° |
| 2026-05-06 01:37 | 36.47309 | 135.91285 | 39171 ft | 590 kts | 82° |
| 2026-05-06 01:38 | 36.48864 | 136.01226 | 39171 ft | 589 kts | 82° |
| 2026-05-06 01:38 | 36.50427 | 136.11274 | 39171 ft | 591 kts | 82° |
| 2026-05-06 01:39 | 36.51982 | 136.21329 | 39171 ft | 592 kts | 82° |
| 2026-05-06 01:39 | 36.53526 | 136.31372 | 39171 ft | 591 kts | 82° |
| 2026-05-06 01:40 | 36.54800 | 136.39702 | 39171 ft | 591 kts | 82° |
| 2026-05-06 01:40 | 36.56585 | 136.51443 | 39172 ft | 590 kts | 82° |
| 2026-05-06 01:41 | 36.58123 | 136.61424 | 39173 ft | 590 kts | 82° |
| 2026-05-06 01:41 | 36.59381 | 136.69779 | 39174 ft | 590 kts | 82° |
| 2026-05-06 01:42 | 36.61015 | 136.80839 | 39174 ft | 593 kts | 82° |
| 2026-05-06 01:42 | 36.62434 | 136.90475 | 39174 ft | 596 kts | 82° |
| 2026-05-06 01:43 | 36.63922 | 137.00709 | 39173 ft | 597 kts | 82° |
| 2026-05-06 01:43 | 36.65356 | 137.10847 | 39172 ft | 597 kts | 82° |
| 2026-05-06 01:44 | 36.66783 | 137.21010 | 39171 ft | 597 kts | 82° |
| 2026-05-06 01:44 | 36.67968 | 137.29485 | 39172 ft | 598 kts | 82° |
| 2026-05-06 01:45 | 36.68738 | 137.35021 | 39174 ft | 598 kts | 82° |
| 2026-05-06 01:45 | 36.70160 | 137.44928 | 39178 ft | 599 kts | 81° |
| 2026-05-06 01:46 | 36.71606 | 137.55146 | 39184 ft | 600 kts | 82° |
| 2026-05-06 01:46 | 36.73030 | 137.65419 | 39190 ft | 600 kts | 82° |
| 2026-05-06 01:47 | 36.74475 | 137.75698 | 39195 ft | 600 kts | 82° |
| 2026-05-06 01:47 | 36.75873 | 137.85939 | 39198 ft | 601 kts | 82° |
| 2026-05-06 01:48 | 36.77244 | 137.96166 | 39216 ft | 601 kts | 82° |
| 2026-05-06 01:48 | 36.78618 | 138.06441 | 39229 ft | 602 kts | 82° |
| 2026-05-06 01:49 | 36.80050 | 138.16760 | 39230 ft | 603 kts | 81° |
| 2026-05-06 01:49 | 36.81480 | 138.27069 | 39232 ft | 602 kts | 82° |
| 2026-05-06 01:50 | 36.82870 | 138.37332 | 39233 ft | 601 kts | 82° |
| 2026-05-06 01:50 | 36.84262 | 138.47612 | 39234 ft | 601 kts | 82° |
| 2026-05-06 01:51 | 36.85623 | 138.57893 | 39236 ft | 600 kts | 82° |
| 2026-05-06 01:51 | 36.86970 | 138.68180 | 39237 ft | 600 kts | 82° |
| 2026-05-06 01:52 | 36.88370 | 138.78450 | 39238 ft | 600 kts | 82° |
| 2026-05-06 01:52 | 36.89704 | 138.88777 | 39239 ft | 599 kts | 82° |
| 2026-05-06 01:53 | 36.91011 | 138.98985 | 39239 ft | 599 kts | 82° |
| 2026-05-06 01:53 | 36.92324 | 139.09242 | 39240 ft | 599 kts | 82° |
| 2026-05-06 01:54 | 36.93702 | 139.19521 | 39249 ft | 599 kts | 82° |
| 2026-05-06 01:54 | 36.95028 | 139.29846 | 39250 ft | 599 kts | 82° |
| 2026-05-06 01:55 | 36.95677 | 139.34950 | 39049 ft | 600 kts | 82° |
| 2026-05-06 01:55 | 36.96332 | 139.40104 | 38548 ft | 601 kts | 82° |
| 2026-05-06 01:55 | 36.96990 | 139.45271 | 38049 ft | 605 kts | 82° |
| 2026-05-06 01:55 | 36.97652 | 139.50474 | 37549 ft | 609 kts | 82° |
| 2026-05-06 01:56 | 36.98290 | 139.55415 | 37078 ft | 611 kts | 82° |
| 2026-05-06 01:56 | 36.98917 | 139.60427 | 36601 ft | 613 kts | 83° |
| 2026-05-06 01:56 | 36.99560 | 139.65658 | 36104 ft | 615 kts | 83° |
| 2026-05-06 01:56 | 37.00222 | 139.71008 | 35596 ft | 617 kts | 83° |
| 2026-05-06 01:57 | 37.00870 | 139.76311 | 35039 ft | 619 kts | 83° |
| 2026-05-06 01:57 | 37.01523 | 139.81609 | 34401 ft | 622 kts | 83° |
| 2026-05-06 01:57 | 37.02186 | 139.86959 | 33644 ft | 625 kts | 83° |
| 2026-05-06 01:57 | 37.02831 | 139.92327 | 32900 ft | 622 kts | 83° |
| 2026-05-06 01:58 | 37.03470 | 139.97657 | 32140 ft | 620 kts | 83° |
| 2026-05-06 01:58 | 37.04116 | 140.02959 | 31464 ft | 613 kts | 83° |
| 2026-05-06 01:58 | 37.04567 | 140.06455 | 31060 ft | 607 kts | 82° |
| 2026-05-06 01:58 | 37.05444 | 140.13332 | 30240 ft | 593 kts | 83° |
| 2026-05-06 01:59 | 37.05865 | 140.16728 | 29816 ft | 589 kts | 83° |
| 2026-05-06 01:59 | 37.06469 | 140.21753 | 29189 ft | 583 kts | 83° |
| 2026-05-06 01:59 | 37.07061 | 140.26340 | 28613 ft | 576 kts | 82° |
| 2026-05-06 01:59 | 37.07676 | 140.31292 | 27983 ft | 569 kts | 83° |
| 2026-05-06 02:00 | 37.08433 | 140.37742 | 27165 ft | 559 kts | 83° |
| 2026-05-06 02:00 | 37.08803 | 140.40926 | 26743 ft | 555 kts | 83° |
| 2026-05-06 02:00 | 37.09363 | 140.45676 | 26130 ft | 548 kts | 83° |
| 2026-05-06 02:00 | 37.09905 | 140.50329 | 25520 ft | 541 kts | 83° |
| 2026-05-06 02:01 | 37.10243 | 140.55039 | 24886 ft | 527 kts | 92° |
| 2026-05-06 02:01 | 37.09853 | 140.59510 | 24268 ft | 514 kts | 106° |
| 2026-05-06 02:01 | 37.08717 | 140.63711 | 23646 ft | 500 kts | 119° |
| 2026-05-06 02:01 | 37.06970 | 140.67391 | 23075 ft | 484 kts | 131° |
| 2026-05-06 02:02 | 37.04865 | 140.70550 | 22574 ft | 470 kts | 137° |
| 2026-05-06 02:02 | 37.02682 | 140.73572 | 22068 ft | 459 kts | 139° |
| 2026-05-06 02:02 | 37.00268 | 140.76030 | 21549 ft | 441 kts | 154° |
| 2026-05-06 02:02 | 36.97487 | 140.77487 | 21045 ft | 427 kts | 170° |
| 2026-05-06 02:03 | 36.94585 | 140.77835 | 20554 ft | 417 kts | 186° |
| 2026-05-06 02:03 | 36.91753 | 140.77216 | 20062 ft | 410 kts | 198° |
| 2026-05-06 02:03 | 36.89078 | 140.76056 | 19579 ft | 404 kts | 203° |
| 2026-05-06 02:03 | 36.86451 | 140.74865 | 19091 ft | 400 kts | 200° |
| 2026-05-06 02:04 | 36.83805 | 140.73782 | 18712 ft | 395 kts | 199° |
| 2026-05-06 02:04 | 36.81202 | 140.72759 | 18344 ft | 389 kts | 199° |
| 2026-05-06 02:04 | 36.78652 | 140.71774 | 18024 ft | 379 kts | 198° |
| 2026-05-06 02:04 | 36.76194 | 140.70824 | 17780 ft | 368 kts | 198° |
| 2026-05-06 02:05 | 36.73793 | 140.69894 | 17530 ft | 358 kts | 198° |
| 2026-05-06 02:05 | 36.71440 | 140.68984 | 17279 ft | 349 kts | 198° |
| 2026-05-06 02:05 | 36.69148 | 140.68096 | 16949 ft | 343 kts | 198° |
| 2026-05-06 02:05 | 36.66894 | 140.67223 | 16575 ft | 338 kts | 198° |
| 2026-05-06 02:06 | 36.64652 | 140.66355 | 16199 ft | 334 kts | 198° |
| 2026-05-06 02:06 | 36.62442 | 140.65498 | 15823 ft | 331 kts | 198° |
| 2026-05-06 02:06 | 36.60277 | 140.64652 | 15451 ft | 327 kts | 198° |
| 2026-05-06 02:06 | 36.58118 | 140.63814 | 15077 ft | 325 kts | 198° |
| 2026-05-06 02:07 | 36.55965 | 140.62981 | 14701 ft | 322 kts | 197° |
| 2026-05-06 02:07 | 36.53833 | 140.62158 | 14328 ft | 320 kts | 197° |
| 2026-05-06 02:07 | 36.51717 | 140.61342 | 13949 ft | 317 kts | 197° |
| 2026-05-06 02:07 | 36.49610 | 140.60532 | 13574 ft | 315 kts | 197° |
| 2026-05-06 02:08 | 36.47526 | 140.59731 | 13199 ft | 313 kts | 197° |
| 2026-05-06 02:08 | 36.45456 | 140.58934 | 12827 ft | 311 kts | 197° |
| 2026-05-06 02:08 | 36.43396 | 140.58136 | 12450 ft | 309 kts | 196° |
| 2026-05-06 02:08 | 36.41334 | 140.57353 | 12082 ft | 308 kts | 196° |
| 2026-05-06 02:09 | 36.39295 | 140.56568 | 11692 ft | 306 kts | 196° |
| 2026-05-06 02:09 | 36.37261 | 140.55787 | 11319 ft | 305 kts | 196° |
| 2026-05-06 02:09 | 36.35264 | 140.55056 | 11064 ft | 298 kts | 193° |
| 2026-05-06 02:09 | 36.33240 | 140.54895 | 10904 ft | 288 kts | 173° |
| 2026-05-06 02:10 | 36.31389 | 140.55761 | 10780 ft | 283 kts | 151° |
| 2026-05-06 02:10 | 36.29839 | 140.57225 | 10647 ft | 281 kts | 142° |
| 2026-05-06 02:10 | 36.28361 | 140.58817 | 10518 ft | 283 kts | 140° |
| 2026-05-06 02:10 | 36.26953 | 140.60558 | 10397 ft | 285 kts | 136° |
| 2026-05-06 02:11 | 36.25599 | 140.62368 | 10247 ft | 286 kts | 135° |
| 2026-05-06 02:11 | 36.24255 | 140.64173 | 10059 ft | 285 kts | 135° |
| 2026-05-06 02:11 | 36.22915 | 140.65973 | 9879 ft | 284 kts | 135° |
| 2026-05-06 02:11 | 36.21566 | 140.67776 | 9706 ft | 284 kts | 135° |
| 2026-05-06 02:12 | 36.20237 | 140.69543 | 9530 ft | 284 kts | 135° |
| 2026-05-06 02:12 | 36.18882 | 140.71332 | 9357 ft | 285 kts | 136° |
| 2026-05-06 02:12 | 36.17509 | 140.73149 | 9182 ft | 284 kts | 135° |
| 2026-05-06 02:12 | 36.16184 | 140.74893 | 9006 ft | 283 kts | 135° |
| 2026-05-06 02:13 | 36.14783 | 140.76592 | 8832 ft | 278 kts | 143° |
| 2026-05-06 02:13 | 36.13064 | 140.77592 | 8634 ft | 275 kts | 168° |
| 2026-05-06 02:13 | 36.11164 | 140.77572 | 8465 ft | 273 kts | 190° |
| 2026-05-06 02:13 | 36.09354 | 140.76869 | 8280 ft | 272 kts | 201° |
| 2026-05-06 02:14 | 36.07620 | 140.75957 | 8091 ft | 269 kts | 204° |
| 2026-05-06 02:14 | 36.05952 | 140.74931 | 7902 ft | 267 kts | 207° |
| 2026-05-06 02:14 | 36.04322 | 140.73830 | 7699 ft | 266 kts | 208° |
| 2026-05-06 02:14 | 36.02713 | 140.72708 | 7501 ft | 265 kts | 209° |
| 2026-05-06 02:15 | 36.01108 | 140.71572 | 7308 ft | 264 kts | 209° |
| 2026-05-06 02:15 | 35.99525 | 140.70474 | 7106 ft | 264 kts | 208° |
| 2026-05-06 02:15 | 35.97934 | 140.69379 | 6911 ft | 261 kts | 208° |
| 2026-05-06 02:15 | 35.96335 | 140.68279 | 6703 ft | 259 kts | 208° |
| 2026-05-06 02:16 | 35.94788 | 140.67223 | 6493 ft | 244 kts | 208° |
| 2026-05-06 02:16 | 35.93375 | 140.66256 | 6289 ft | 222 kts | 208° |
| 2026-05-06 02:16 | 35.92094 | 140.65386 | 6073 ft | 206 kts | 208° |
| 2026-05-06 02:16 | 35.90839 | 140.64538 | 5873 ft | 201 kts | 208° |
| 2026-05-06 02:17 | 35.89633 | 140.63722 | 5745 ft | 196 kts | 208° |
| 2026-05-06 02:17 | 35.88420 | 140.62903 | 5621 ft | 201 kts | 208° |
| 2026-05-06 02:17 | 35.87182 | 140.62067 | 5501 ft | 201 kts | 208° |
| 2026-05-06 02:17 | 35.85981 | 140.61265 | 5391 ft | 198 kts | 207° |
| 2026-05-06 02:18 | 35.84790 | 140.60355 | 5278 ft | 202 kts | 217° |
| 2026-05-06 02:18 | 35.84090 | 140.58884 | 5118 ft | 206 kts | 248° |
| 2026-05-06 02:18 | 35.84185 | 140.57114 | 5012 ft | 215 kts | 280° |
| 2026-05-06 02:18 | 35.85080 | 140.55610 | 4916 ft | 225 kts | 312° |
| 2026-05-06 02:19 | 35.86450 | 140.54650 | 4871 ft | 225 kts | 327° |
| 2026-05-06 02:19 | 35.87685 | 140.53489 | 4813 ft | 223 kts | 314° |
| 2026-05-06 02:19 | 35.88683 | 140.52068 | 4740 ft | 223 kts | 306° |
| 2026-05-06 02:19 | 35.89685 | 140.50567 | 4616 ft | 224 kts | 305° |
| 2026-05-06 02:20 | 35.91623 | 140.47629 | 4367 ft | 220 kts | 304° |
| 2026-05-06 02:20 | 35.92577 | 140.46163 | 4227 ft | 217 kts | 304° |
| 2026-05-06 02:20 | 35.93404 | 140.44894 | 4130 ft | 219 kts | 304° |
| 2026-05-06 02:21 | 35.94247 | 140.43601 | 4004 ft | 220 kts | 304° |
| 2026-05-06 02:21 | 35.95142 | 140.42222 | 3888 ft | 219 kts | 304° |
| 2026-05-06 02:21 | 35.96100 | 140.40750 | 3766 ft | 218 kts | 304° |
| 2026-05-06 02:21 | 35.97049 | 140.39290 | 3638 ft | 218 kts | 304° |
| 2026-05-06 02:22 | 35.97999 | 140.37829 | 3515 ft | 218 kts | 304° |
| 2026-05-06 02:22 | 35.98941 | 140.36383 | 3417 ft | 218 kts | 304° |
| 2026-05-06 02:22 | 35.99885 | 140.34932 | 3343 ft | 218 kts | 304° |
| 2026-05-06 02:22 | 36.00696 | 140.33374 | 3248 ft | 214 kts | 291° |
| 2026-05-06 02:23 | 36.00875 | 140.31593 | 3126 ft | 208 kts | 261° |
| 2026-05-06 02:23 | 36.00360 | 140.29971 | 3103 ft | 202 kts | 239° |
| 2026-05-06 02:23 | 35.99578 | 140.28543 | 3069 ft | 200 kts | 231° |
| 2026-05-06 02:23 | 35.98776 | 140.27146 | 3022 ft | 198 kts | 232° |
| 2026-05-06 02:24 | 35.97987 | 140.25790 | 2958 ft | 191 kts | 226° |
| 2026-05-06 02:24 | 35.96896 | 140.25022 | 2857 ft | 175 kts | 199° |
| 2026-05-06 02:24 | 35.95705 | 140.24982 | 2861 ft | 168 kts | 179° |
| 2026-05-06 02:24 | 35.94560 | 140.25270 | 2809 ft | 170 kts | 168° |
| 2026-05-06 02:25 | 35.93457 | 140.25767 | 2810 ft | 171 kts | 162° |
| 2026-05-06 02:25 | 35.92345 | 140.26385 | 2807 ft | 173 kts | 159° |
| 2026-05-06 02:25 | 35.91263 | 140.26994 | 2802 ft | 173 kts | 158° |
| 2026-05-06 02:25 | 35.90189 | 140.27657 | 2805 ft | 173 kts | 156° |
| 2026-05-06 02:26 | 35.89139 | 140.28370 | 2791 ft | 173 kts | 154° |
| 2026-05-06 02:26 | 35.88110 | 140.29104 | 2552 ft | 167 kts | 153° |
| 2026-05-06 02:26 | 35.87133 | 140.29808 | 2314 ft | 157 kts | 153° |
| 2026-05-06 02:26 | 35.86403 | 140.30335 | 2161 ft | 151 kts | 153° |
| 2026-05-06 02:27 | 35.85506 | 140.30985 | 1965 ft | 148 kts | 153° |
| 2026-05-06 02:27 | 35.84620 | 140.31626 | 1763 ft | 144 kts | 153° |
| 2026-05-06 02:27 | 35.83775 | 140.32239 | 1581 ft | 138 kts | 153° |
| 2026-05-06 02:27 | 35.82952 | 140.32835 | 1383 ft | 136 kts | 151° |
| 2026-05-06 02:28 | 35.82151 | 140.33414 | 1222 ft | 132 kts | 151° |
| 2026-05-06 02:28 | 35.81364 | 140.33985 | 1040 ft | 130 kts | 151° |
| 2026-05-06 02:28 | 35.80583 | 140.34550 | 868 ft | 130 kts | 151° |
| 2026-05-06 02:28 | 35.79801 | 140.35116 | 695 ft | 130 kts | 151° |
| 2026-05-06 02:29 | 35.79024 | 140.35678 | 523 ft | 129 kts | 151° |
| 2026-05-06 02:29 | 35.78250 | 140.36238 | 354 ft | 129 kts | 151° |
| 2026-05-06 02:29 | 35.77475 | 140.36799 | 190 ft | 129 kts | 151° |
| 2026-05-06 02:29 | 35.76753 | 140.37318 | 149 ft | 107 kts | 152° |
| 2026-05-06 02:30 | 35.76246 | 140.37682 | 149 ft | 62 kts | 147° |
| 2026-05-06 02:30 | 35.76058 | 140.37827 | 149 ft | 14 kts | 149° |
| 2026-05-06 02:30 | 35.75970 | 140.37901 | 149 ft | 15 kts | 138° |
| 2026-05-06 02:30 | 35.75901 | 140.37993 | 149 ft | 14 kts | 127° |
| 2026-05-06 02:31 | 35.75849 | 140.38090 | 149 ft | 12 kts | 121° |
| 2026-05-06 02:31 | 35.75837 | 140.38114 | 149 ft | 0 kts | 120° |
| 2026-05-06 02:31 | 35.75835 | 140.38119 | 149 ft | 1 kts | 120° |
| 2026-05-06 02:31 | 35.75827 | 140.38135 | 149 ft | 0 kts | 120° |
| 2026-05-06 02:32 | 35.75826 | 140.38137 | 149 ft | 1 kts | 120° |
| 2026-05-06 02:32 | 35.75823 | 140.38144 | 149 ft | 1 kts | 120° |
| 2026-05-06 02:32 | 35.75818 | 140.38156 | 149 ft | 2 kts | 120° |
| 2026-05-06 02:32 | 35.75809 | 140.38174 | 149 ft | 5 kts | 120° |
| 2026-05-06 02:33 | 35.75782 | 140.38233 | 149 ft | 9 kts | 119° |
| 2026-05-06 02:33 | 35.75760 | 140.38274 | 149 ft | 9 kts | 127° |
| 2026-05-06 02:33 | 35.75722 | 140.38414 | 149 ft | 8 kts | 85° |
| 2026-05-06 02:34 | 35.75696 | 140.38467 | 149 ft | 7 kts | 141° |
| 2026-05-06 02:34 | 35.75655 | 140.38502 | 149 ft | 7 kts | 148° |
| 2026-05-06 02:34 | 35.75616 | 140.38532 | 149 ft | 6 kts | 139° |
| 2026-05-06 02:34 | 35.75598 | 140.38596 | 149 ft | 12 kts | 92° |
| 2026-05-06 02:35 | 35.75603 | 140.38685 | 149 ft | 15 kts | 78° |
| 2026-05-06 02:35 | 35.75655 | 140.38822 | 149 ft | 19 kts | 57° |
| 2026-05-06 02:35 | 35.75721 | 140.38953 | 149 ft | 18 kts | 58° |
| 2026-05-06 02:35 | 35.75783 | 140.39080 | 149 ft | 17 kts | 59° |
| 2026-05-06 02:36 | 35.75843 | 140.39189 | 149 ft | 15 kts | 41° |
| 2026-05-06 02:36 | 35.75931 | 140.39247 | 149 ft | 15 kts | 24° |
| 2026-05-06 02:36 | 35.76043 | 140.39308 | 149 ft | 21 kts | 23° |
| 2026-05-06 02:36 | 35.76195 | 140.39392 | 149 ft | 27 kts | 24° |
| 2026-05-06 02:37 | 35.76380 | 140.39496 | 149 ft | 31 kts | 25° |
| 2026-05-06 02:37 | 35.76591 | 140.39612 | 149 ft | 33 kts | 24° |
| 2026-05-06 02:37 | 35.76734 | 140.39715 | 149 ft | 17 kts | 38° |
| 2026-05-06 02:37 | 35.76808 | 140.39771 | 149 ft | 9 kts | 16° |
| 2026-05-06 02:38 | 35.76867 | 140.39759 | 149 ft | 8 kts | 323° |
| 2026-05-06 02:38 | 35.76874 | 140.39751 | 149 ft | 0 kts | 316° |
| 2026-05-06 02:38 | 35.76875 | 140.39750 | 149 ft | 2 kts | 315° |
| 2026-05-06 02:39 | 35.76902 | 140.39703 | 149 ft | 9 kts | 300° |
| 2026-05-06 02:39 | 35.76917 | 140.39628 | 149 ft | 9 kts | 265° |
| 2026-05-06 02:39 | 35.76896 | 140.39559 | 149 ft | 8 kts | 242° |
| 2026-05-06 02:39 | 35.76876 | 140.39494 | 149 ft | 8 kts | 270° |
| 2026-05-06 02:40 | 35.76902 | 140.39438 | 149 ft | 8 kts | 314° |
| 2026-05-06 02:40 | 35.76948 | 140.39394 | 149 ft | 9 kts | 327° |
| 2026-05-06 02:40 | 35.77017 | 140.39343 | 149 ft | 14 kts | 329° |
| 2026-05-06 02:40 | 35.77096 | 140.39285 | 149 ft | 13 kts | 329° |
| 2026-05-06 02:41 | 35.77154 | 140.39242 | 149 ft | 6 kts | 327° |
| 2026-05-06 02:41 | 35.77167 | 140.39211 | 149 ft | 3 kts | 268° |
| 2026-05-06 02:41 | 35.77159 | 140.39191 | 149 ft | 3 kts | 228° |
| 2026-05-06 02:41 | 35.77140 | 140.39163 | 149 ft | 4 kts | 235° |
| 2026-05-06 02:42 | 35.77131 | 140.39144 | 149 ft | 1 kts | 238° |
| 2026-05-06 02:42 | 35.77130 | 140.39142 | 149 ft | 0 kts | 238° |
| 2026-05-06 02:42 | 35.77130 | 140.39143 | 149 ft | 0 kts | 238° |